GBYD

Details ICAO GBYD (BJL)
Name Banjul Intl
Region The Gambia
Timezone Africa/Banjul (UTC+0.0)
Plans Departing 71
Arriving 133
Stats Elevation 95 ft / 29 m (AMSL)
Location 13.337960° -16.652206°
Runways 1
Magnetic Variation 7.261° W
Sunrise 2018-05-27 06:40:19 UTC / 2018-05-27 06:40:19 Local
Sunset 2018-05-27 19:30:06 UTC / 2018-05-27 19:30:06 Local
Advertisement - Login to hide

Runways

ID Width Length Bearing (true) Bearing (mag) Surface Threshold Offset Overrun Length
14 148 ft / 45 m 11,825 ft / 3,604 m 130.82° 138.08° Asphalt 500 ft / 152 m 197 ft / 60 m
32 148 ft / 45 m 11,825 ft / 3,604 m 310.83° 318.09° Asphalt 500 ft / 152 m 393 ft / 120 m

Map

Weather


0- 5 10 15 20 25 30 35+ Temperature / ° C

Clouds and Precipitation
Forecast for 2018-05-27 18:00 UTC. Updated 3 hours ago

Ground ~20,000 ft ~40,000 ft Winds

METAR

GBYD 272000Z 26010KT CAVOK 22/18 Q1011

TAF

TAF TAF GBYD 271730Z 2718/2824 26008KT CAVOK

Frequencies

Unicom 130.60 MHz GAMBIA AIRWAYS MULTICOM
Tower 118.30 MHz BANJUL TWR
Ground 121.90 MHz BANJUL TOWER GND
Approach 121.30 MHz BANJUL TOWER APP
Warning: Do not use this data for real-world aviation or navigation. No guarantee of current accuracy is given.